»·PEaware :: SWA1165 KLAS-KLAX

SWA1165 :: KLAS-KLAX

FLIGHT INFORMATION

Flight Status: Arrived
Operator:
Southwest Airlines
More flights by this operator :: More flights under this callsign
Pilot: Ben L. (6391)
Aircraft: BOEING 737-800
(B738)
More flights by this aircraft type
Origin: KLAS McCarran Intl
United States
Destination: KLAX Los Angeles Intl
United States
More flights between these airports :: More routes between these airports
Route: +BOACH8 RIKII SHTNR BIGBR3
File this flight plan on PilotEdge
Remarks:
Altitude:
(Current/Filed)
28,000ft
Speed:
(Current/Filed)
450kts
Departed: 06-Dec-18 11:42 AM
Arrived: 06-Dec-18 12:36 PM
Distance/Time
Traveled:
205nm/0:54
Distance/Time
To Go:
Arrived

Flight Plot

Page will automatically refresh every two minutes.

Flight plan parsing failed; only flown route is shown


Map Options




Map Legend


Flown Route
Filed Route
Departure Airport
Arrival Airport
Navaid (VOR, NDB)
Fix

Horizontal Profiles

Position Reports

Time Latitude Longitude Heading Altitude Ground
Speed
06-Dec-18 11:14 36.080940 -115.145983 254 2189ft 0kts
06-Dec-18 11:15 36.080940 -115.145983 254 2189ft 0kts
06-Dec-18 11:16 36.080940 -115.145983 254 2189ft 0kts
06-Dec-18 11:17 36.080940 -115.145983 254 2189ft 0kts
06-Dec-18 11:18 36.080940 -115.145983 254 2189ft 0kts
06-Dec-18 11:19 36.080940 -115.145983 254 2189ft 0kts
06-Dec-18 11:20 36.080940 -115.145983 254 2189ft 0kts
06-Dec-18 11:21 36.080940 -115.145983 254 2189ft 0kts
06-Dec-18 11:22 36.080940 -115.145983 254 2189ft 0kts
06-Dec-18 11:23 36.080940 -115.145983 254 2189ft 0kts
06-Dec-18 11:24 36.080940 -115.145983 254 2189ft 0kts
06-Dec-18 11:25 36.080940 -115.145983 254 2189ft 0kts
06-Dec-18 11:27 36.080940 -115.145983 254 2189ft 0kts
06-Dec-18 11:28 36.080940 -115.145983 254 2189ft 0kts
06-Dec-18 11:29 36.080940 -115.145983 254 2189ft 0kts
06-Dec-18 11:30 36.080940 -115.145983 254 2189ft 0kts
06-Dec-18 11:31 36.080940 -115.145983 254 2189ft 0kts
06-Dec-18 11:32 36.080940 -115.145982 254 2189ft 0kts
06-Dec-18 11:33 36.081276 -115.145492 203 2189ft 2kts
06-Dec-18 11:34 36.081790 -115.145497 152 2189ft 1kts
06-Dec-18 11:35 36.081819 -115.145516 154 2189ft 0kts
06-Dec-18 11:36 36.081739 -115.145468 154 2189ft 5kts
06-Dec-18 11:37 36.079264 -115.144430 180 2189ft 9kts
06-Dec-18 11:38 36.077542 -115.143693 97 2189ft 13kts
06-Dec-18 11:39 36.077476 -115.136471 91 2189ft 25kts
06-Dec-18 11:40 36.077551 -115.127633 90 2189ft 25kts
06-Dec-18 11:41 36.076718 -115.121262 188 2189ft 11kts
06-Dec-18 11:42 36.076385 -115.132445 269 2189ft 125kts
06-Dec-18 11:43 36.076235 -115.188179 269 3905ft 180kts
06-Dec-18 11:44 36.062378 -115.260911 227 4967ft 263kts
06-Dec-18 11:45 35.994356 -115.294101 192 6996ft 287kts
06-Dec-18 11:46 35.916911 -115.309120 177 7509ft 279kts
06-Dec-18 11:47 35.843433 -115.314524 172 9466ft 276kts
06-Dec-18 11:48 35.765824 -115.304873 173 11620ft 299kts
06-Dec-18 11:48 35.696886 -115.297465 175 13809ft 308kts
06-Dec-18 11:50 35.596733 -115.299663 180 16951ft 321kts
06-Dec-18 11:50 35.522329 -115.301104 180 19137ft 330kts
06-Dec-18 11:52 35.426531 -115.356217 212 21945ft 348kts
06-Dec-18 11:52 35.358127 -115.408670 209 23117ft 353kts
06-Dec-18 11:53 35.274306 -115.469639 209 23279ft 361kts
06-Dec-18 11:55 35.173989 -115.542245 210 25835ft 367kts
06-Dec-18 11:55 35.105960 -115.601337 224 27322ft 376kts
06-Dec-18 11:56 35.039257 -115.686797 224 28157ft 389kts
06-Dec-18 11:57 34.969193 -115.776299 224 28141ft 393kts
06-Dec-18 11:58 34.899546 -115.864950 225 28144ft 391kts
06-Dec-18 11:59 34.831796 -115.950957 225 28159ft 389kts
06-Dec-18 12:00 34.761542 -116.039975 225 28157ft 387kts
06-Dec-18 12:01 34.689448 -116.131888 225 28156ft 387kts
06-Dec-18 12:02 34.613989 -116.227802 225 28149ft 405kts
06-Dec-18 12:03 34.538321 -116.323750 225 28134ft 375kts
06-Dec-18 12:04 34.469111 -116.411289 225 28151ft 364kts
06-Dec-18 12:05 34.408663 -116.498123 239 28109ft 357kts
06-Dec-18 12:06 34.363985 -116.605692 240 28088ft 368kts
06-Dec-18 12:07 34.326513 -116.696740 240 28073ft 368kts
06-Dec-18 12:08 34.285864 -116.797699 240 28072ft 368kts
06-Dec-18 12:09 34.242731 -116.904622 240 27959ft 370kts
06-Dec-18 12:10 34.202141 -117.013825 248 26180ft 365kts
06-Dec-18 12:11 34.172573 -117.128323 248 24141ft 358kts
06-Dec-18 12:12 34.143036 -117.239731 248 23726ft 363kts
06-Dec-18 12:13 34.117668 -117.351565 251 21155ft 343kts
06-Dec-18 12:14 34.095019 -117.460192 251 18539ft 333kts
06-Dec-18 12:15 34.073509 -117.562476 252 16488ft 328kts
06-Dec-18 12:16 34.052500 -117.662649 251 14841ft 318kts
06-Dec-18 12:17 34.034685 -117.755843 259 13932ft 315kts
06-Dec-18 12:18 34.026089 -117.860119 259 13931ft 319kts
06-Dec-18 12:19 34.016989 -117.964475 259 12993ft 317kts
06-Dec-18 12:20 34.008510 -118.065171 260 11504ft 313kts
06-Dec-18 12:21 34.001157 -118.165408 260 10367ft 286kts
06-Dec-18 12:22 33.994524 -118.252975 262 9517ft 284kts
06-Dec-18 12:23 34.000276 -118.345207 277 8348ft 285kts
06-Dec-18 12:24 34.008477 -118.438347 276 7201ft 281kts
06-Dec-18 12:25 34.011125 -118.527368 266 6561ft 264kts
06-Dec-18 12:26 34.001551 -118.612310 262 5654ft 242kts
06-Dec-18 12:27 33.993783 -118.686306 262 4761ft 238kts
06-Dec-18 12:28 33.960899 -118.741947 173 3787ft 224kts
06-Dec-18 12:29 33.929470 -118.690843 101 2974ft 205kts
06-Dec-18 12:30 33.928347 -118.630436 78 2983ft 177kts
06-Dec-18 12:31 33.938145 -118.571513 78 2718ft 194kts
06-Dec-18 12:32 33.941550 -118.506970 88 1396ft 194kts
06-Dec-18 12:33 33.946854 -118.453848 82 484ft 132kts
06-Dec-18 12:34 33.950977 -118.413126 82 135ft 78kts
06-Dec-18 12:35 33.951733 -118.402039 156 135ft 9kts
06-Dec-18 12:36 33.948898 -118.403239 265 135ft 14kts
06-Dec-18 12:37 33.946506 -118.405648 171 135ft 19kts
06-Dec-18 12:38 33.946007 -118.406497 307 135ft 0kts

Navigation Log

Ident Type
Flight plan parsing failed, navigation log unavailable